Time;durP1;ratioP1;P1;durP2;ratioP2;P2;SDS_P1;SDS_P2;PMS_P1;PMS_P2;Temp;Humidity;BMP_temperature;BMP_pressure;BME280_temperature;BME280_humidity;BME280_pressure;Samples;Min_cycle;Max_cycle;Signal;HPM_P1;HPM_P2
2021/12/19 00:01:19;;;;;;;19.25;9.60;;;;;;;;;;5053618;28;20114;-67
2021/12/19 00:09:04;;;;;;;17.58;8.32;;;;;;;;;;5053287;28;20036;-67
2021/12/19 00:11:30;;;;;;;21.50;9.60;;;;;;;;;;5053748;28;20033;-67
2021/12/19 00:17:04;;;;;;;16.48;8.02;;;;;;;;;;5011124;28;20025;-68
2021/12/19 00:19:30;;;;;;;15.93;8.48;;;;;;;;;;5048205;28;20460;-68
2021/12/19 00:21:57;;;;;;;18.98;8.85;;;;;;;;;;5053447;28;20033;-68
2021/12/19 00:24:24;;;;;;;16.60;8.55;;;;;;;;;;5052375;28;20025;-68
2021/12/19 00:26:50;;;;;;;19.65;8.80;;;;;;;;;;5053238;28;20108;-68
2021/12/19 00:29:16;;;;;;;16.67;8.50;;;;;;;;;;5052894;28;20025;-68
2021/12/19 00:31:46;;;;;;;16.63;8.05;;;;;;;;;;5053495;28;20028;-68
2021/12/19 00:34:13;;;;;;;18.10;8.43;;;;;;;;;;5053458;28;20476;-68
2021/12/19 00:36:39;;;;;;;22.42;9.18;;;;;;;;;;5051905;28;20064;-68
2021/12/19 00:39:06;;;;;;;18.40;9.25;;;;;;;;;;5053428;28;20032;-68
2021/12/19 00:41:32;;;;;;;21.77;9.80;;;;;;;;;;5053052;28;20021;-68
2021/12/19 00:44:10;;;;;;;18.05;9.27;;;;;;;;;;5053065;28;20025;-67
2021/12/19 00:46:44;;;;;;;21.23;10.55;;;;;;;;;;5053637;28;20444;-69
2021/12/19 00:49:11;;;;;;;22.23;10.57;;;;;;;;;;5053476;28;20452;-68
2021/12/19 00:51:38;;;;;;;26.95;10.40;;;;;;;;;;5052632;28;20031;-68
2021/12/19 00:54:09;;;;;;;17.65;9.55;;;;;;;;;;5053464;28;20076;-68
2021/12/19 00:56:35;;;;;;;16.55;8.27;;;;;;;;;;5053317;28;20029;-68
2021/12/19 00:59:01;;;;;;;20.60;8.88;;;;;;;;;;5052740;28;20383;-69
2021/12/19 01:01:28;;;;;;;17.20;8.60;;;;;;;;;;5052157;28;20128;-66
2021/12/19 01:03:54;;;;;;;17.45;8.65;;;;;;;;;;5052772;28;20028;-68
2021/12/19 01:06:20;;;;;;;16.67;8.25;;;;;;;;;;5053047;28;20120;-68
2021/12/19 01:08:47;;;;;;;23.42;8.75;;;;;;;;;;5053227;28;20021;-66
2021/12/19 01:11:14;;;;;;;17.70;9.40;;;;;;;;;;5051725;28;20463;-68
2021/12/19 01:13:43;;;;;;;13.50;8.25;;;;;;;;;;5044452;28;20047;-65
2021/12/19 01:16:12;;;;;;;26.92;12.10;;;;;;;;;;5056661;28;20095;-66
2021/12/19 01:18:39;;;;;;;27.48;12.32;;;;;;;;;;5056721;28;20063;-67
2021/12/19 01:21:05;;;;;;;22.13;12.38;;;;;;;;;;5042866;28;20032;-66
2021/12/19 01:23:32;;;;;;;27.23;13.13;;;;;;;;;;5036605;28;20026;-68
2021/12/19 01:25:58;;;;;;;28.70;14.00;;;;;;;;;;5035839;28;20030;-68
2021/12/19 01:28:24;;;;;;;28.70;13.68;;;;;;;;;;5036969;28;20017;-68
2021/12/19 01:30:51;;;;;;;25.52;13.38;;;;;;;;;;5035390;28;20369;-68
2021/12/19 01:33:17;;;;;;;29.83;12.48;;;;;;;;;;5036499;28;20032;-67
2021/12/19 01:35:43;;;;;;;22.02;11.73;;;;;;;;;;5052962;28;20017;-68
2021/12/19 01:38:10;;;;;;;29.45;12.63;;;;;;;;;;5055583;28;20029;-68
2021/12/19 01:40:36;;;;;;;23.30;11.80;;;;;;;;;;5038678;28;20021;-68
2021/12/19 01:43:02;;;;;;;22.42;11.80;;;;;;;;;;5056012;28;20467;-68
2021/12/19 01:45:33;;;;;;;23.58;11.95;;;;;;;;;;5056226;28;20029;-68
2021/12/19 01:48:00;;;;;;;20.80;12.48;;;;;;;;;;5049739;28;20100;-67
2021/12/19 01:50:31;;;;;;;24.83;12.15;;;;;;;;;;5036262;28;20484;-68
2021/12/19 01:52:57;;;;;;;25.83;12.03;;;;;;;;;;5035861;28;20053;-68
2021/12/19 01:55:24;;;;;;;26.42;12.23;;;;;;;;;;5036428;28;20021;-68
2021/12/19 01:57:50;;;;;;;26.42;12.25;;;;;;;;;;5036585;28;20480;-67
2021/12/19 02:00:19;;;;;;;30.55;11.55;;;;;;;;;;5036086;28;20060;-67
2021/12/19 02:02:45;;;;;;;22.80;11.65;;;;;;;;;;5035932;28;20025;-68
2021/12/19 02:05:11;;;;;;;23.83;11.80;;;;;;;;;;5034922;28;20056;-68
2021/12/19 02:07:38;;;;;;;21.38;10.95;;;;;;;;;;5036089;28;20032;-68
2021/12/19 02:10:04;;;;;;;20.70;10.05;;;;;;;;;;5036095;28;20092;-68
2021/12/19 02:12:30;;;;;;;20.08;11.10;;;;;;;;;;5036502;28;20096;-67
2021/12/19 02:15:00;;;;;;;23.90;10.85;;;;;;;;;;5034477;28;20033;-67
2021/12/19 02:17:26;;;;;;;21.63;10.27;;;;;;;;;;5035696;28;20523;-68
2021/12/19 02:19:56;;;;;;;20.90;10.38;;;;;;;;;;5035701;28;20415;-68
2021/12/19 02:22:23;;;;;;;20.25;9.60;;;;;;;;;;5034923;28;20442;-68
2021/12/19 02:24:49;;;;;;;24.88;11.15;;;;;;;;;;5035604;28;20411;-68
2021/12/19 02:27:18;;;;;;;22.58;10.95;;;;;;;;;;5035564;28;20472;-67
2021/12/19 02:29:44;;;;;;;20.33;10.55;;;;;;;;;;5033855;28;20029;-68
2021/12/19 02:32:11;;;;;;;20.30;10.38;;;;;;;;;;5035619;28;20021;-67
2021/12/19 02:34:42;;;;;;;20.02;11.05;;;;;;;;;;5035682;28;20051;-68
2021/12/19 02:37:32;;;;;;;19.27;10.38;;;;;;;;;;5035167;28;20502;-67
2021/12/19 02:48:11;;;;;;;18.73;10.00;;;;;;;;;;5035670;28;20040;-68
2021/12/19 02:50:38;;;;;;;24.02;9.90;;;;;;;;;;5035222;28;20083;-67
2021/12/19 02:53:04;;;;;;;26.88;10.40;;;;;;;;;;5035038;28;20022;-67
2021/12/19 02:55:30;;;;;;;21.08;9.48;;;;;;;;;;5035110;28;20122;-68
2021/12/19 02:57:57;;;;;;;23.67;10.45;;;;;;;;;;5034941;28;20079;-67
2021/12/19 03:00:24;;;;;;;22.20;9.70;;;;;;;;;;5035469;28;20056;-67
2021/12/19 03:02:51;;;;;;;24.02;10.80;;;;;;;;;;5035402;28;20072;-68
2021/12/19 03:05:17;;;;;;;20.25;9.25;;;;;;;;;;5034533;28;20387;-68
2021/12/19 03:07:44;;;;;;;21.38;9.57;;;;;;;;;;5035084;28;20028;-68
2021/12/19 03:18:06;;;;;;;13.20;7.53;;;;;;;;;;5034358;28;20036;-67
2021/12/19 03:20:32;;;;;;;20.95;9.52;;;;;;;;;;5034861;28;20022;-67
2021/12/19 03:23:00;;;;;;;23.45;9.65;;;;;;;;;;5034988;28;20029;-68
2021/12/19 03:25:26;;;;;;;18.98;9.80;;;;;;;;;;5034354;28;20025;-68
2021/12/19 03:27:52;;;;;;;18.27;8.70;;;;;;;;;;5034710;28;20026;-68
2021/12/19 03:30:19;;;;;;;17.92;7.93;;;;;;;;;;5034333;28;20449;-68
2021/12/19 03:32:46;;;;;;;20.00;9.35;;;;;;;;;;5033221;28;20097;-68
2021/12/19 03:35:12;;;;;;;18.52;8.25;;;;;;;;;;5034326;28;20028;-67
2021/12/19 03:37:38;;;;;;;16.08;7.75;;;;;;;;;;5034085;28;20076;-68
2021/12/19 03:40:12;;;;;;;14.50;8.15;;;;;;;;;;5033918;28;20463;-68
2021/12/19 03:42:42;;;;;;;14.13;7.80;;;;;;;;;;5034048;28;20043;-68
2021/12/19 03:45:09;;;;;;;12.75;5.63;;;;;;;;;;5034135;28;20036;-68
2021/12/19 03:47:36;;;;;;;19.00;6.57;;;;;;;;;;5033127;28;20030;-68
2021/12/19 03:50:04;;;;;;;14.95;6.50;;;;;;;;;;5034011;28;20024;-67
2021/12/19 03:52:30;;;;;;;15.93;6.30;;;;;;;;;;5034226;28;20024;-67
2021/12/19 03:54:57;;;;;;;13.75;6.38;;;;;;;;;;5034160;28;20026;-67
2021/12/19 03:57:23;;;;;;;18.25;6.93;;;;;;;;;;5034163;28;20079;-68
2021/12/19 03:59:49;;;;;;;14.45;7.38;;;;;;;;;;5033389;28;20045;-68
2021/12/19 04:02:24;;;;;;;20.60;7.88;;;;;;;;;;5032779;28;20334;-68
2021/12/19 04:04:50;;;;;;;15.85;8.27;;;;;;;;;;5034025;28;20036;-68
2021/12/19 04:07:16;;;;;;;14.48;7.75;;;;;;;;;;5033960;28;20037;-68
2021/12/19 04:09:42;;;;;;;16.75;7.53;;;;;;;;;;5034055;28;20025;-68
2021/12/19 04:12:09;;;;;;;21.58;7.88;;;;;;;;;;5033924;28;20021;-67
2021/12/19 04:14:36;;;;;;;16.63;7.88;;;;;;;;;;5033571;28;20029;-67
2021/12/19 04:17:02;;;;;;;14.35;7.78;;;;;;;;;;5033892;28;20033;-68
2021/12/19 04:19:29;;;;;;;22.27;8.85;;;;;;;;;;5033722;28;20033;-68
2021/12/19 04:21:56;;;;;;;20.00;9.27;;;;;;;;;;5033751;28;20033;-68
2021/12/19 04:24:26;;;;;;;19.20;8.65;;;;;;;;;;5033426;28;20504;-69
2021/12/19 04:27:13;;;;;;;20.30;8.57;;;;;;;;;;5033302;28;20028;-70
2021/12/19 04:29:59;;;;;;;19.25;8.57;;;;;;;;;;5033342;28;20530;-69
2021/12/19 04:32:33;;;;;;;19.95;9.00;;;;;;;;;;5033721;28;20498;-72
2021/12/19 04:35:30;;;;;;;20.33;8.52;;;;;;;;;;5033360;28;20033;-71
2021/12/19 04:59:57;;;;;;;15.55;7.88;;;;;;;;;;5040084;28;20049;-67
2021/12/19 05:15:52;;;;;;;18.35;7.68;;;;;;;;;;5039707;28;20066;-67
2021/12/19 05:18:21;;;;;;;17.30;7.88;;;;;;;;;;5039285;28;20152;-68
2021/12/19 05:20:55;;;;;;;16.08;8.57;;;;;;;;;;5039776;28;20113;-68
2021/12/19 05:23:35;;;;;;;19.77;8.50;;;;;;;;;;5039428;28;20021;-67
2021/12/19 05:26:02;;;;;;;15.90;7.30;;;;;;;;;;5039541;28;20028;-68
2021/12/19 05:28:28;;;;;;;16.17;7.00;;;;;;;;;;5039738;28;20472;-68
2021/12/19 05:30:56;;;;;;;17.02;7.75;;;;;;;;;;5039372;28;20101;-68
2021/12/19 05:33:22;;;;;;;16.70;7.95;;;;;;;;;;5038393;28;20021;-67
2021/12/19 05:46:35;;;;;;;19.30;8.02;;;;;;;;;;5039764;28;20041;-68
2021/12/19 05:49:04;;;;;;;13.13;7.80;;;;;;;;;;5039620;28;20021;-68
2021/12/19 05:51:30;;;;;;;17.92;8.23;;;;;;;;;;5038947;28;20014;-68
2021/12/19 05:53:56;;;;;;;22.17;8.75;;;;;;;;;;5039169;28;20033;-68
2021/12/19 05:56:23;;;;;;;16.02;8.05;;;;;;;;;;5036230;28;20096;-68
2021/12/19 05:58:49;;;;;;;17.67;8.48;;;;;;;;;;5035992;28;20457;-68
2021/12/19 06:01:15;;;;;;;18.00;7.65;;;;;;;;;;5036425;28;20014;-68
2021/12/19 06:03:41;;;;;;;15.60;8.25;;;;;;;;;;5036227;28;20040;-67
2021/12/19 06:06:07;;;;;;;13.48;7.47;;;;;;;;;;5035674;28;20030;-68
2021/12/19 06:08:33;;;;;;;17.73;7.60;;;;;;;;;;5035890;28;20400;-68
2021/12/19 06:11:00;;;;;;;16.55;7.95;;;;;;;;;;5034918;28;20446;-68
2021/12/19 06:13:26;;;;;;;28.10;12.30;;;;;;;;;;5035769;28;20148;-68
2021/12/19 06:15:55;;;;;;;21.35;9.95;;;;;;;;;;5036243;28;20013;-66
2021/12/19 06:18:21;;;;;;;22.10;10.05;;;;;;;;;;5035768;28;20018;-66
2021/12/19 06:20:47;;;;;;;24.00;12.20;;;;;;;;;;5035670;28;20105;-67
2021/12/19 06:23:13;;;;;;;26.23;11.15;;;;;;;;;;5035258;28;20031;-67
2021/12/19 06:25:45;;;;;;;25.00;12.15;;;;;;;;;;5034539;28;20060;-67
2021/12/19 06:28:21;;;;;;;21.67;10.52;;;;;;;;;;5033872;28;20384;-67
2021/12/19 06:30:47;;;;;;;18.85;9.90;;;;;;;;;;5035746;28;20060;-67
2021/12/19 06:33:13;;;;;;;21.50;10.85;;;;;;;;;;5035506;28;20352;-67
2021/12/19 06:35:39;;;;;;;20.80;11.82;;;;;;;;;;5035770;28;20032;-67
2021/12/19 06:38:06;;;;;;;23.58;12.32;;;;;;;;;;5035577;28;20160;-67
2021/12/19 06:40:33;;;;;;;26.00;13.23;;;;;;;;;;5035243;28;20021;-67
2021/12/19 06:42:59;;;;;;;28.83;11.80;;;;;;;;;;5035370;28;20022;-67
2021/12/19 06:45:29;;;;;;;23.42;9.82;;;;;;;;;;5035649;28;20028;-67
2021/12/19 06:48:09;;;;;;;20.13;10.75;;;;;;;;;;5034594;28;20053;-67
2021/12/19 06:50:35;;;;;;;21.08;11.25;;;;;;;;;;5051611;28;20029;-67
2021/12/19 06:53:02;;;;;;;20.52;9.73;;;;;;;;;;5054510;28;20031;-68
2021/12/19 06:55:30;;;;;;;21.30;10.80;;;;;;;;;;5054107;28;20017;-67
2021/12/19 06:57:57;;;;;;;26.08;10.95;;;;;;;;;;5054541;28;20027;-66
2021/12/19 07:00:25;;;;;;;20.45;9.75;;;;;;;;;;5072615;28;20047;-67
2021/12/19 07:02:54;;;;;;;33.20;14.52;;;;;;;;;;5075788;28;20028;-67
2021/12/19 07:05:20;;;;;;;25.08;11.50;;;;;;;;;;5075409;28;20020;-67
2021/12/19 07:07:47;;;;;;;22.02;11.13;;;;;;;;;;5077087;28;20017;-67
2021/12/19 07:10:13;;;;;;;26.10;11.02;;;;;;;;;;5077694;28;20095;-67
2021/12/19 07:12:39;;;;;;;17.67;8.85;;;;;;;;;;5075906;28;20410;-67
2021/12/19 07:15:06;;;;;;;19.52;9.35;;;;;;;;;;5075969;28;20387;-67
2021/12/19 07:17:32;;;;;;;20.92;10.35;;;;;;;;;;5078301;28;20027;-67
2021/12/19 07:19:58;;;;;;;23.85;10.98;;;;;;;;;;5074710;28;20021;-67
2021/12/19 07:22:24;;;;;;;27.73;11.02;;;;;;;;;;5074318;28;20021;-67
2021/12/19 07:24:51;;;;;;;23.55;11.02;;;;;;;;;;5074543;28;20038;-67
2021/12/19 07:27:17;;;;;;;22.55;10.65;;;;;;;;;;5074517;28;20078;-67
2021/12/19 07:29:43;;;;;;;24.33;9.95;;;;;;;;;;5073889;28;20012;-67
2021/12/19 07:32:12;;;;;;;24.42;10.52;;;;;;;;;;5074346;28;20025;-67
2021/12/19 07:34:40;;;;;;;24.85;10.68;;;;;;;;;;5074334;28;20095;-67
2021/12/19 07:37:06;;;;;;;22.35;10.60;;;;;;;;;;5073713;28;20487;-68
2021/12/19 07:42:05;;;;;;;18.25;10.32;;;;;;;;;;5046693;28;20033;-67
2021/12/19 07:44:32;;;;;;;24.35;10.90;;;;;;;;;;5040956;28;20088;-66
2021/12/19 07:46:58;;;;;;;23.30;11.65;;;;;;;;;;5045042;28;20022;-67
2021/12/19 07:49:24;;;;;;;21.05;10.73;;;;;;;;;;5034204;28;20025;-67
2021/12/19 07:51:50;;;;;;;24.85;9.90;;;;;;;;;;5042326;28;20540;-67
2021/12/19 07:54:16;;;;;;;22.33;11.25;;;;;;;;;;5034095;28;20029;-67
2021/12/19 07:56:43;;;;;;;21.48;11.60;;;;;;;;;;5033760;28;20109;-67
2021/12/19 07:59:09;;;;;;;25.33;10.52;;;;;;;;;;5033499;28;20051;-67
2021/12/19 08:01:35;;;;;;;22.17;12.15;;;;;;;;;;5033690;28;20028;-67
2021/12/19 08:04:01;;;;;;;20.52;11.32;;;;;;;;;;5033576;28;20080;-66
2021/12/19 08:06:28;;;;;;;24.02;11.73;;;;;;;;;;5033744;28;20030;-66
2021/12/19 08:08:56;;;;;;;27.95;11.57;;;;;;;;;;5033997;28;20021;-67
2021/12/19 08:11:40;;;;;;;25.30;11.82;;;;;;;;;;5033636;28;20113;-67
2021/12/19 08:14:06;;;;;;;22.67;9.43;;;;;;;;;;5033862;28;20053;-67
2021/12/19 08:16:33;;;;;;;21.45;9.30;;;;;;;;;;5033898;28;20021;-66
2021/12/19 08:18:59;;;;;;;26.35;10.35;;;;;;;;;;5046083;28;20031;-66
2021/12/19 08:21:25;;;;;;;20.23;8.85;;;;;;;;;;5053633;28;20104;-67
2021/12/19 08:23:52;;;;;;;17.52;8.45;;;;;;;;;;5052371;28;20103;-67
2021/12/19 08:26:23;;;;;;;24.13;10.40;;;;;;;;;;5053277;28;20367;-68
2021/12/19 08:28:50;;;;;;;18.67;8.40;;;;;;;;;;5053765;28;20033;-65
2021/12/19 08:31:16;;;;;;;21.45;9.00;;;;;;;;;;5053257;28;20606;-66
2021/12/19 08:33:42;;;;;;;16.88;8.15;;;;;;;;;;5052929;28;20029;-66
2021/12/19 08:36:08;;;;;;;16.58;8.50;;;;;;;;;;5053326;28;20108;-68
2021/12/19 08:38:35;;;;;;;16.88;7.88;;;;;;;;;;5053200;28;20103;-68
2021/12/19 08:41:01;;;;;;;16.00;7.97;;;;;;;;;;5053189;28;20025;-67
2021/12/19 08:43:27;;;;;;;19.35;9.27;;;;;;;;;;5053353;28;20032;-67
2021/12/19 08:45:54;;;;;;;24.10;12.57;;;;;;;;;;5052973;28;20021;-68
2021/12/19 08:48:20;;;;;;;22.70;11.05;;;;;;;;;;5052905;28;20021;-67
2021/12/19 08:50:46;;;;;;;22.88;11.48;;;;;;;;;;5053184;28;20036;-67
2021/12/19 08:53:13;;;;;;;25.33;11.60;;;;;;;;;;5068404;28;20021;-67
2021/12/19 08:55:39;;;;;;;27.85;12.15;;;;;;;;;;5053251;28;20043;-67
2021/12/19 08:58:08;;;;;;;26.40;12.30;;;;;;;;;;5053248;28;20021;-67
2021/12/19 09:00:39;;;;;;;25.08;12.68;;;;;;;;;;5069974;28;20102;-68
2021/12/19 09:03:14;;;;;;;27.55;12.02;;;;;;;;;;5072453;28;20036;-69
2021/12/19 09:05:40;;;;;;;30.42;13.30;;;;;;;;;;5055900;28;20459;-68
2021/12/19 09:08:07;;;;;;;31.30;13.48;;;;;;;;;;5072945;28;20038;-68
2021/12/19 09:10:34;;;;;;;29.77;13.75;;;;;;;;;;5073013;28;20021;-68
2021/12/19 09:13:01;;;;;;;25.23;12.38;;;;;;;;;;5069670;28;20052;-67
2021/12/19 09:15:27;;;;;;;36.33;14.25;;;;;;;;;;5042101;28;20021;-66
2021/12/19 09:17:53;;;;;;;28.98;14.50;;;;;;;;;;5057809;28;20024;-69
2021/12/19 09:20:19;;;;;;;27.48;12.82;;;;;;;;;;5062078;28;20021;-67
2021/12/19 09:22:46;;;;;;;30.20;14.23;;;;;;;;;;5057119;28;20099;-68
2021/12/19 09:25:12;;;;;;;26.98;13.70;;;;;;;;;;5060966;28;20452;-67
2021/12/19 09:27:38;;;;;;;24.88;11.55;;;;;;;;;;5061910;28;20028;-68
2021/12/19 09:30:04;;;;;;;17.45;8.07;;;;;;;;;;5060538;28;20372;-68
2021/12/19 09:32:31;;;;;;;12.57;6.80;;;;;;;;;;5061972;28;20028;-67
2021/12/19 09:35:00;;;;;;;14.23;7.07;;;;;;;;;;5066515;28;20028;-69
2021/12/19 09:37:29;;;;;;;16.25;6.93;;;;;;;;;;5048108;28;20028;-70
2021/12/19 09:39:56;;;;;;;14.90;8.13;;;;;;;;;;5062421;28;20017;-67
2021/12/19 09:42:32;;;;;;;12.63;6.80;;;;;;;;;;5065532;28;20494;-68
2021/12/19 09:45:00;;;;;;;11.80;6.30;;;;;;;;;;5062865;28;20087;-67
2021/12/19 09:47:26;;;;;;;22.42;10.52;;;;;;;;;;5046872;28;20062;-68
2021/12/19 09:49:53;;;;;;;20.35;9.60;;;;;;;;;;5064270;28;20023;-69
2021/12/19 09:52:19;;;;;;;22.27;10.82;;;;;;;;;;5067622;28;20025;-68
2021/12/19 09:54:45;;;;;;;25.23;13.95;;;;;;;;;;5060539;28;20860;-68
2021/12/19 09:57:11;;;;;;;33.50;16.77;;;;;;;;;;5076005;28;20601;-68
2021/12/19 09:59:38;;;;;;;32.53;16.30;;;;;;;;;;5073767;28;20471;-69
2021/12/19 10:02:05;;;;;;;30.95;15.52;;;;;;;;;;5046860;28;20028;-69
2021/12/19 10:04:33;;;;;;;31.67;15.23;;;;;;;;;;5075724;28;20055;-68
2021/12/19 10:07:10;;;;;;;37.83;16.58;;;;;;;;;;5073632;28;20060;-68
2021/12/19 10:09:37;;;;;;;41.92;18.95;;;;;;;;;;5068096;28;20094;-69
2021/12/19 10:13:15;;;;;;;26.85;12.88;;;;;;;;;;5055595;28;20100;-69
2021/12/19 10:15:18;;;;;;;25.08;10.80;;;;;;;;;;5038250;28;20053;-68
2021/12/19 10:17:45;;;;;;;31.52;14.18;;;;;;;;;;5065454;28;20054;-68
2021/12/19 10:20:13;;;;;;;18.38;7.80;;;;;;;;;;5073991;28;20383;-69
2021/12/19 10:22:41;;;;;;;11.38;5.32;;;;;;;;;;5075539;28;20035;-68
2021/12/19 10:25:18;;;;;;;11.85;5.38;;;;;;;;;;5063253;28;20029;-68
2021/12/19 10:27:55;;;;;;;9.73;4.82;;;;;;;;;;5062383;28;20478;-68
2021/12/19 10:30:23;;;;;;;16.38;7.68;;;;;;;;;;5039284;28;20083;-67
2021/12/19 10:33:08;;;;;;;18.23;8.45;;;;;;;;;;5068102;28;20025;-67
2021/12/19 10:35:46;;;;;;;16.88;7.47;;;;;;;;;;5056532;28;20021;-68
2021/12/19 10:38:15;;;;;;;24.88;13.20;;;;;;;;;;5055289;28;20459;-68
2021/12/19 10:40:45;;;;;;;30.42;14.30;;;;;;;;;;5055552;28;20090;-68
2021/12/19 10:43:16;;;;;;;25.65;12.90;;;;;;;;;;5051237;28;20059;-68
2021/12/19 10:46:02;;;;;;;26.25;12.55;;;;;;;;;;5042619;28;20479;-68
2021/12/19 10:48:32;;;;;;;22.48;12.27;;;;;;;;;;5035607;28;20032;-68
2021/12/19 10:51:01;;;;;;;16.95;8.13;;;;;;;;;;5035694;28;20028;-68
2021/12/19 10:53:47;;;;;;;17.13;8.75;;;;;;;;;;5034679;28;20030;-68
2021/12/19 10:56:21;;;;;;;19.27;10.48;;;;;;;;;;5035061;28;20453;-68
2021/12/19 10:58:58;;;;;;;20.45;10.07;;;;;;;;;;5037884;28;20150;-68
2021/12/19 11:01:31;;;;;;;21.80;10.23;;;;;;;;;;5054832;28;20021;-68
2021/12/19 11:03:59;;;;;;;21.08;10.63;;;;;;;;;;5054915;28;20031;-67
2021/12/19 11:06:28;;;;;;;19.27;10.40;;;;;;;;;;5054459;28;20021;-68
2021/12/19 11:08:55;;;;;;;22.92;10.85;;;;;;;;;;5054525;28;20499;-68
2021/12/19 11:11:40;;;;;;;24.63;11.88;;;;;;;;;;5054953;28;20025;-68
2021/12/19 11:14:07;;;;;;;25.25;12.70;;;;;;;;;;5054547;28;20029;-68
2021/12/19 11:16:33;;;;;;;22.38;12.77;;;;;;;;;;5054602;28;20021;-68
2021/12/19 11:18:59;;;;;;;26.92;13.68;;;;;;;;;;5054830;28;20541;-68
2021/12/19 11:21:27;;;;;;;19.10;11.13;;;;;;;;;;5054410;28;20021;-68
2021/12/19 11:23:53;;;;;;;19.98;10.40;;;;;;;;;;5054436;28;20106;-68
2021/12/19 11:26:20;;;;;;;18.98;8.57;;;;;;;;;;5055011;28;20029;-67
2021/12/19 11:28:47;;;;;;;14.20;7.82;;;;;;;;;;5054389;28;20029;-67
2021/12/19 11:31:13;;;;;;;16.63;8.57;;;;;;;;;;5054343;28;20017;-68
2021/12/19 11:34:10;;;;;;;17.80;7.53;;;;;;;;;;5054166;28;20021;-68
2021/12/19 11:36:38;;;;;;;22.98;11.07;;;;;;;;;;4955743;28;20040;-68
2021/12/19 11:39:05;;;;;;;13.60;7.15;;;;;;;;;;5050244;28;20020;-68
2021/12/19 11:41:34;;;;;;;14.70;7.85;;;;;;;;;;5052455;28;20468;-69
2021/12/19 11:44:07;;;;;;;15.43;8.55;;;;;;;;;;5051438;28;20047;-68
2021/12/19 11:46:44;;;;;;;25.05;10.73;;;;;;;;;;5051616;28;20056;-68
2021/12/19 11:49:19;;;;;;;31.88;11.70;;;;;;;;;;5035062;28;20021;-68
2021/12/19 11:51:46;;;;;;;14.60;7.55;;;;;;;;;;5052155;28;20104;-67
2021/12/19 11:54:17;;;;;;;15.20;7.78;;;;;;;;;;5050542;28;20392;-69
2021/12/19 11:57:02;;;;;;;20.85;9.48;;;;;;;;;;5050990;28;20024;-67
2021/12/19 11:59:28;;;;;;;21.17;10.50;;;;;;;;;;5031394;28;20551;-64
2021/12/19 12:02:05;;;;;;;26.80;10.60;;;;;;;;;;5031021;28;20029;-69
2021/12/19 12:04:31;;;;;;;48.97;18.95;;;;;;;;;;5031118;28;20519;-66
2021/12/19 12:06:59;;;;;;;33.75;14.25;;;;;;;;;;5031212;28;20014;-67
2021/12/19 12:09:40;;;;;;;20.20;10.43;;;;;;;;;;5027744;28;20112;-65
2021/12/19 12:12:11;;;;;;;18.07;9.20;;;;;;;;;;5028672;28;20028;-66
2021/12/19 12:14:44;;;;;;;17.60;8.52;;;;;;;;;;5035416;28;20067;-66
2021/12/19 12:17:17;;;;;;;17.25;8.60;;;;;;;;;;5029438;28;20024;-66
2021/12/19 12:19:48;;;;;;;13.05;7.45;;;;;;;;;;5030657;28;20039;-66
2021/12/19 12:22:18;;;;;;;14.73;8.57;;;;;;;;;;5030527;28;20013;-67
2021/12/19 12:25:07;;;;;;;16.48;8.70;;;;;;;;;;5029614;28;20140;-64
2021/12/19 12:27:36;;;;;;;18.63;10.07;;;;;;;;;;5030438;28;20021;-68
2021/12/19 12:30:04;;;;;;;23.75;10.40;;;;;;;;;;5030156;28;20017;-67
2021/12/19 12:32:33;;;;;;;21.10;9.75;;;;;;;;;;5032425;28;20036;-68
2021/12/19 12:35:03;;;;;;;22.88;10.63;;;;;;;;;;5032916;28;20017;-65
2021/12/19 12:37:29;;;;;;;16.77;9.00;;;;;;;;;;5030819;28;20423;-67
2021/12/19 12:40:30;;;;;;;18.33;10.07;;;;;;;;;;5032768;28;20017;-67
2021/12/19 12:42:57;;;;;;;17.17;9.65;;;;;;;;;;4980020;28;20060;-64
2021/12/19 12:45:30;;;;;;;14.38;9.00;;;;;;;;;;5033242;28;20025;-69
2021/12/19 12:47:57;;;;;;;15.00;8.77;;;;;;;;;;5033478;28;20112;-68
2021/12/19 12:50:23;;;;;;;21.20;9.25;;;;;;;;;;5033502;28;20033;-67
2021/12/19 12:52:50;;;;;;;18.85;10.45;;;;;;;;;;5033198;28;20096;-66
2021/12/19 12:55:17;;;;;;;14.98;9.80;;;;;;;;;;5032151;28;20025;-67
2021/12/19 12:57:44;;;;;;;24.42;13.65;;;;;;;;;;5031493;28;20026;-66
2021/12/19 13:00:18;;;;;;;24.42;12.88;;;;;;;;;;5048238;28;20069;-66
2021/12/19 13:03:21;;;;;;;23.98;12.52;;;;;;;;;;5035482;28;20032;-66
2021/12/19 13:05:51;;;;;;;21.90;12.10;;;;;;;;;;5055381;28;20025;-66
2021/12/19 13:08:24;;;;;;;19.98;10.00;;;;;;;;;;5057583;28;20075;-65
2021/12/19 13:10:53;;;;;;;24.38;13.65;;;;;;;;;;5057354;28;20487;-66
2021/12/19 13:13:24;;;;;;;19.63;10.68;;;;;;;;;;5056614;28;20028;-65
2021/12/19 13:15:51;;;;;;;22.80;11.77;;;;;;;;;;5039269;28;20099;-65
2021/12/19 13:18:19;;;;;;;17.95;11.25;;;;;;;;;;5057094;28;20047;-67
2021/12/19 13:20:46;;;;;;;26.20;15.05;;;;;;;;;;5056759;28;20019;-67
2021/12/19 13:23:12;;;;;;;16.73;9.25;;;;;;;;;;5056898;28;20537;-67
2021/12/19 13:25:40;;;;;;;16.63;8.93;;;;;;;;;;5038945;28;20472;-67
2021/12/19 13:28:10;;;;;;;15.35;8.93;;;;;;;;;;5056255;28;20397;-65
2021/12/19 13:30:46;;;;;;;19.45;9.10;;;;;;;;;;5056672;28;20471;-64
2021/12/19 13:33:14;;;;;;;18.95;9.80;;;;;;;;;;5056422;28;20033;-65
2021/12/19 13:35:56;;;;;;;19.20;9.35;;;;;;;;;;5056560;28;20021;-65
2021/12/19 13:38:26;;;;;;;22.30;10.80;;;;;;;;;;5056647;28;20017;-66
2021/12/19 13:40:55;;;;;;;16.02;8.93;;;;;;;;;;5056011;28;20056;-68
2021/12/19 13:43:23;;;;;;;23.75;12.45;;;;;;;;;;5056407;28;20059;-65
2021/12/19 13:45:52;;;;;;;19.92;10.43;;;;;;;;;;5056373;28;20028;-67
2021/12/19 13:48:24;;;;;;;17.92;10.45;;;;;;;;;;5055926;28;20483;-65
2021/12/19 13:50:54;;;;;;;20.23;10.38;;;;;;;;;;5056289;28;20025;-68
2021/12/19 13:53:20;;;;;;;24.30;11.57;;;;;;;;;;5055871;28;20028;-66
2021/12/19 13:55:46;;;;;;;22.17;12.52;;;;;;;;;;5056122;28;20029;-67
2021/12/19 13:58:13;;;;;;;24.08;11.30;;;;;;;;;;5056013;28;20043;-65
2021/12/19 14:00:43;;;;;;;21.77;11.02;;;;;;;;;;5056351;28;20084;-66
2021/12/19 14:03:10;;;;;;;23.95;11.70;;;;;;;;;;5055512;28;20025;-68
2021/12/19 14:05:41;;;;;;;23.13;12.63;;;;;;;;;;5056060;28;20025;-67
2021/12/19 14:08:36;;;;;;;26.75;13.38;;;;;;;;;;5055737;28;20024;-65
2021/12/19 14:11:13;;;;;;;21.40;11.55;;;;;;;;;;5034666;28;20033;-65
2021/12/19 14:13:40;;;;;;;21.08;11.50;;;;;;;;;;5056041;28;20037;-67
2021/12/19 14:16:08;;;;;;;20.70;12.10;;;;;;;;;;5055113;28;20467;-65
2021/12/19 14:18:37;;;;;;;24.20;12.57;;;;;;;;;;5055699;28;20030;-64
2021/12/19 14:21:04;;;;;;;20.52;11.90;;;;;;;;;;5055873;28;20349;-66
2021/12/19 14:23:38;;;;;;;20.00;10.98;;;;;;;;;;5055479;28;20017;-64
2021/12/19 14:26:05;;;;;;;23.02;12.20;;;;;;;;;;5055601;28;20061;-65
2021/12/19 14:28:33;;;;;;;21.02;11.40;;;;;;;;;;5037873;28;20021;-68
2021/12/19 14:31:03;;;;;;;21.75;11.48;;;;;;;;;;5055362;28;20462;-67
2021/12/19 14:33:37;;;;;;;23.67;11.32;;;;;;;;;;5055585;28;20021;-65
2021/12/19 14:36:11;;;;;;;22.30;11.10;;;;;;;;;;5037412;28;20032;-66
2021/12/19 14:38:38;;;;;;;15.45;8.52;;;;;;;;;;5055349;28;20021;-64
2021/12/19 14:41:07;;;;;;;17.25;9.00;;;;;;;;;;5055194;28;20124;-66
2021/12/19 14:43:34;;;;;;;15.70;8.98;;;;;;;;;;5055042;28;20025;-65
2021/12/19 14:46:02;;;;;;;15.80;7.97;;;;;;;;;;5055059;28;20021;-68
2021/12/19 14:48:28;;;;;;;10.57;5.60;;;;;;;;;;5054856;28;20460;-65
2021/12/19 14:50:55;;;;;;;13.90;6.43;;;;;;;;;;5055005;28;20100;-66
2021/12/19 14:53:22;;;;;;;13.55;6.93;;;;;;;;;;5037350;28;20028;-65
2021/12/19 14:55:53;;;;;;;11.98;6.45;;;;;;;;;;5054900;28;20025;-67
2021/12/19 14:58:20;;;;;;;11.55;5.95;;;;;;;;;;5054542;28;20020;-65
2021/12/19 15:00:50;;;;;;;12.10;6.45;;;;;;;;;;5055401;28;20057;-63
2021/12/19 15:03:16;;;;;;;14.20;7.15;;;;;;;;;;5054730;28;20021;-64
2021/12/19 15:05:43;;;;;;;18.83;7.57;;;;;;;;;;5054462;28;20104;-66
2021/12/19 15:08:12;;;;;;;16.80;8.55;;;;;;;;;;5054821;28;20017;-66
2021/12/19 15:10:38;;;;;;;17.83;8.77;;;;;;;;;;5054477;28;20032;-66
2021/12/19 15:13:05;;;;;;;18.08;8.35;;;;;;;;;;5054310;28;20029;-67
2021/12/19 15:15:31;;;;;;;28.00;12.15;;;;;;;;;;5054359;28;20021;-66
2021/12/19 15:17:57;;;;;;;19.63;8.23;;;;;;;;;;5054007;28;20380;-66
2021/12/19 15:20:24;;;;;;;15.50;8.38;;;;;;;;;;5054705;28;20013;-65
2021/12/19 15:22:50;;;;;;;16.13;7.75;;;;;;;;;;5054298;28;20503;-65
2021/12/19 15:25:16;;;;;;;17.45;9.23;;;;;;;;;;5054112;28;20044;-66
2021/12/19 15:27:43;;;;;;;14.85;5.50;;;;;;;;;;5054062;28;20021;-64
2021/12/19 15:30:10;;;;;;;11.70;6.28;;;;;;;;;;5036117;28;20031;-65
2021/12/19 15:32:36;;;;;;;17.10;6.68;;;;;;;;;;5054160;28;20394;-65
2021/12/19 15:35:07;;;;;;;10.93;5.88;;;;;;;;;;5054490;28;20056;-65
2021/12/19 15:37:33;;;;;;;10.10;5.77;;;;;;;;;;5054752;28;20031;-63
2021/12/19 15:40:00;;;;;;;11.38;5.95;;;;;;;;;;5054144;28;20031;-66
2021/12/19 15:42:27;;;;;;;14.85;6.90;;;;;;;;;;5053866;28;20096;-65
2021/12/19 15:44:53;;;;;;;14.10;8.00;;;;;;;;;;5054879;28;20037;-67
2021/12/19 15:47:19;;;;;;;10.85;5.75;;;;;;;;;;5055784;28;20096;-65